Time;durP1;ratioP1;P1;durP2;ratioP2;P2;SDS_P1;SDS_P2;PMS_P1;PMS_P2;Temp;Humidity;BMP_temperature;BMP_pressure;BME280_temperature;BME280_humidity;BME280_pressure;Samples;Min_cycle;Max_cycle;Signal;HPM_P1;HPM_P2
2022/04/03 00:00:27;;;;;;;6.90;2.50;;;;;;;;;;4976385;28;20053;-69
2022/04/03 00:02:53;;;;;;;6.63;2.40;;;;;;;;;;4990527;28;20185;-69
2022/04/03 00:05:19;;;;;;;6.10;2.15;;;;;;;;;;4992610;28;20469;-69
2022/04/03 00:07:46;;;;;;;5.35;2.35;;;;;;;;;;4981980;28;20065;-68
2022/04/03 00:10:12;;;;;;;6.53;2.55;;;;;;;;;;4975423;28;20051;-68
2022/04/03 00:12:40;;;;;;;7.07;2.10;;;;;;;;;;4956919;28;20058;-68
2022/04/03 00:15:06;;;;;;;5.75;2.25;;;;;;;;;;4991803;28;20046;-68
2022/04/03 00:17:32;;;;;;;6.72;2.40;;;;;;;;;;4981888;28;20046;-68
2022/04/03 00:19:58;;;;;;;6.47;2.28;;;;;;;;;;4991937;28;20049;-68
2022/04/03 00:22:28;;;;;;;5.28;2.03;;;;;;;;;;4986115;28;20450;-68
2022/04/03 00:24:54;;;;;;;5.13;2.07;;;;;;;;;;4975043;28;20050;-69
2022/04/03 00:27:20;;;;;;;7.65;2.25;;;;;;;;;;4975860;28;20130;-68
2022/04/03 00:29:46;;;;;;;6.10;2.28;;;;;;;;;;4978254;28;20123;-69
2022/04/03 00:32:12;;;;;;;5.90;2.22;;;;;;;;;;4974702;28;20461;-68
2022/04/03 00:34:38;;;;;;;6.78;2.17;;;;;;;;;;4977324;28;20054;-68
2022/04/03 00:37:04;;;;;;;6.97;2.35;;;;;;;;;;4961676;28;20073;-68
2022/04/03 00:39:30;;;;;;;6.00;2.13;;;;;;;;;;4993568;28;20112;-68
2022/04/03 00:41:56;;;;;;;6.18;2.30;;;;;;;;;;4974533;28;20054;-68
2022/04/03 00:44:24;;;;;;;6.88;2.35;;;;;;;;;;4979461;28;20050;-68
2022/04/03 00:46:50;;;;;;;5.32;2.20;;;;;;;;;;4974650;28;20082;-68
2022/04/03 00:49:16;;;;;;;5.03;2.20;;;;;;;;;;4975365;28;20070;-68
2022/04/03 00:51:43;;;;;;;7.43;2.40;;;;;;;;;;4981164;28;20043;-68
2022/04/03 00:54:09;;;;;;;7.55;2.60;;;;;;;;;;4975776;28;20050;-67
2022/04/03 00:56:35;;;;;;;6.63;2.75;;;;;;;;;;4979099;28;20054;-67
2022/04/03 00:59:01;;;;;;;6.40;2.97;;;;;;;;;;4985549;28;20081;-68
2022/04/03 01:01:27;;;;;;;6.28;3.30;;;;;;;;;;4982193;28;20050;-69
2022/04/03 01:03:53;;;;;;;10.15;5.90;;;;;;;;;;4992203;28;20049;-69
2022/04/03 01:06:19;;;;;;;11.23;6.03;;;;;;;;;;4992136;28;20085;-68
2022/04/03 01:08:45;;;;;;;11.52;6.30;;;;;;;;;;4975266;28;20077;-69
2022/04/03 01:11:12;;;;;;;15.95;5.15;;;;;;;;;;4983445;28;20053;-69
2022/04/03 01:13:57;;;;;;;9.25;4.32;;;;;;;;;;4979478;28;20073;-68
2022/04/03 01:16:23;;;;;;;8.38;4.13;;;;;;;;;;4988739;28;20493;-69
2022/04/03 01:18:49;;;;;;;9.00;3.90;;;;;;;;;;4979786;28;20125;-68
2022/04/03 01:21:16;;;;;;;7.63;3.58;;;;;;;;;;4989214;28;20077;-68
2022/04/03 01:23:43;;;;;;;7.55;3.35;;;;;;;;;;4987328;28;20087;-68
2022/04/03 01:26:09;;;;;;;10.20;3.20;;;;;;;;;;4985910;28;20042;-68
2022/04/03 01:28:35;;;;;;;6.22;2.83;;;;;;;;;;4985830;28;20034;-68
2022/04/03 01:31:01;;;;;;;7.40;3.30;;;;;;;;;;4978482;28;20161;-68
2022/04/03 01:33:27;;;;;;;7.18;3.20;;;;;;;;;;4980288;28;20038;-69
2022/04/03 01:35:53;;;;;;;5.88;2.97;;;;;;;;;;4976615;28;20494;-69
2022/04/03 01:38:19;;;;;;;8.18;3.20;;;;;;;;;;4991649;28;20046;-70
2022/04/03 01:40:45;;;;;;;7.25;2.75;;;;;;;;;;4976651;28;20074;-68
2022/04/03 01:43:11;;;;;;;7.03;3.00;;;;;;;;;;4979636;28;20450;-69
2022/04/03 01:45:38;;;;;;;7.00;2.90;;;;;;;;;;4991442;28;20401;-69
2022/04/03 01:48:04;;;;;;;7.72;3.03;;;;;;;;;;4992463;28;20505;-68
2022/04/03 01:50:30;;;;;;;6.35;2.72;;;;;;;;;;4992263;28;20440;-68
2022/04/03 01:52:56;;;;;;;7.45;2.83;;;;;;;;;;4980833;28;20066;-69
2022/04/03 01:55:24;;;;;;;8.30;3.05;;;;;;;;;;4977177;28;20043;-68
2022/04/03 01:57:50;;;;;;;7.68;3.03;;;;;;;;;;4991874;28;20057;-68
2022/04/03 02:00:16;;;;;;;5.85;2.65;;;;;;;;;;4991262;28;20043;-68
2022/04/03 02:02:42;;;;;;;9.73;3.38;;;;;;;;;;4992089;28;20047;-67
2022/04/03 02:05:08;;;;;;;7.55;2.97;;;;;;;;;;4988562;28;20076;-68
2022/04/03 02:07:35;;;;;;;8.35;3.00;;;;;;;;;;4983897;28;20568;-68
2022/04/03 02:10:05;;;;;;;7.47;2.78;;;;;;;;;;4996297;28;20520;-69
2022/04/03 02:12:31;;;;;;;8.55;3.20;;;;;;;;;;4996101;28;20065;-68
2022/04/03 02:14:57;;;;;;;8.23;3.00;;;;;;;;;;4989528;28;20125;-68
2022/04/03 02:17:26;;;;;;;6.32;2.85;;;;;;;;;;4983547;28;20042;-68
2022/04/03 02:19:52;;;;;;;8.13;3.08;;;;;;;;;;4993465;28;20053;-68
2022/04/03 02:22:18;;;;;;;8.48;2.83;;;;;;;;;;4990624;28;20038;-68
2022/04/03 02:24:44;;;;;;;7.13;3.35;;;;;;;;;;4995633;28;20512;-67
2022/04/03 02:27:10;;;;;;;6.93;2.92;;;;;;;;;;4991231;28;20046;-67
2022/04/03 02:29:36;;;;;;;7.90;2.97;;;;;;;;;;4983608;28;20047;-68
2022/04/03 02:32:02;;;;;;;8.18;2.90;;;;;;;;;;4994761;28;20046;-68
2022/04/03 02:34:29;;;;;;;6.75;3.17;;;;;;;;;;4981406;28;20062;-68
2022/04/03 02:36:55;;;;;;;7.28;2.72;;;;;;;;;;4980440;28;20053;-68
2022/04/03 02:39:21;;;;;;;7.90;2.97;;;;;;;;;;4991656;28;20045;-68
2022/04/03 02:41:47;;;;;;;9.23;3.20;;;;;;;;;;4984305;28;20453;-68
2022/04/03 02:44:15;;;;;;;7.53;3.17;;;;;;;;;;4982733;28;20038;-68
2022/04/03 02:46:41;;;;;;;6.20;2.72;;;;;;;;;;4977332;28;20055;-68
2022/04/03 02:49:08;;;;;;;7.95;2.92;;;;;;;;;;4979659;28;20073;-68
2022/04/03 02:51:34;;;;;;;6.15;2.70;;;;;;;;;;4957560;28;20137;-68
2022/04/03 02:54:01;;;;;;;6.80;2.88;;;;;;;;;;4973660;28;20043;-68
2022/04/03 02:56:27;;;;;;;5.70;2.63;;;;;;;;;;4991437;28;20502;-68
2022/04/03 02:58:53;;;;;;;7.55;2.78;;;;;;;;;;4980202;28;20049;-68
2022/04/03 03:01:20;;;;;;;7.32;2.83;;;;;;;;;;4968069;28;20497;-68
2022/04/03 03:03:46;;;;;;;7.75;2.70;;;;;;;;;;4988700;28;20046;-68
2022/04/03 03:06:12;;;;;;;5.90;2.88;;;;;;;;;;4994414;28;20133;-68
2022/04/03 03:08:38;;;;;;;5.85;2.70;;;;;;;;;;4988325;28;20150;-69
2022/04/03 03:11:04;;;;;;;5.45;2.40;;;;;;;;;;4992267;28;20121;-68
2022/04/03 03:13:30;;;;;;;9.63;3.00;;;;;;;;;;4976016;28;20142;-68
2022/04/03 03:15:56;;;;;;;6.68;2.70;;;;;;;;;;4982049;28;20068;-68
2022/04/03 03:18:22;;;;;;;8.25;2.70;;;;;;;;;;4976564;28;20089;-69
2022/04/03 03:20:48;;;;;;;6.75;2.53;;;;;;;;;;4994823;28;20509;-68
2022/04/03 03:23:14;;;;;;;6.30;2.72;;;;;;;;;;4992058;28;20038;-68
2022/04/03 03:25:40;;;;;;;8.27;2.83;;;;;;;;;;4991917;28;20064;-69
2022/04/03 03:28:06;;;;;;;6.47;2.58;;;;;;;;;;4994222;28;20049;-69
2022/04/03 03:30:32;;;;;;;6.05;2.72;;;;;;;;;;4972257;28;20062;-69
2022/04/03 03:32:58;;;;;;;6.97;2.70;;;;;;;;;;4969473;28;20133;-69
2022/04/03 03:35:24;;;;;;;7.43;3.03;;;;;;;;;;4994393;28;20121;-68
2022/04/03 03:37:50;;;;;;;6.80;2.40;;;;;;;;;;4985202;28;20042;-68
2022/04/03 03:40:16;;;;;;;7.07;2.50;;;;;;;;;;4993524;28;20049;-68
2022/04/03 03:42:43;;;;;;;9.30;2.85;;;;;;;;;;4991646;28;20509;-68
2022/04/03 03:45:13;;;;;;;7.15;2.67;;;;;;;;;;4995042;28;20058;-69
2022/04/03 03:47:39;;;;;;;10.10;3.22;;;;;;;;;;4978135;28;20501;-68
2022/04/03 03:50:05;;;;;;;7.53;2.60;;;;;;;;;;4984613;28;20049;-68
2022/04/03 03:52:31;;;;;;;8.30;2.95;;;;;;;;;;4958382;28;20054;-68
2022/04/03 03:54:58;;;;;;;7.80;3.00;;;;;;;;;;4991051;28;20042;-69
2022/04/03 03:57:24;;;;;;;7.95;3.15;;;;;;;;;;4988940;28;20210;-69
2022/04/03 03:59:51;;;;;;;5.75;2.83;;;;;;;;;;4989549;28;20470;-69
2022/04/03 04:02:17;;;;;;;8.57;3.08;;;;;;;;;;4981990;28;20129;-69
2022/04/03 04:04:43;;;;;;;7.53;2.75;;;;;;;;;;4975180;28;20046;-69
2022/04/03 04:07:09;;;;;;;9.30;3.10;;;;;;;;;;4987251;28;20058;-68
2022/04/03 04:09:35;;;;;;;10.63;3.53;;;;;;;;;;4983120;28;20061;-69
2022/04/03 04:12:01;;;;;;;9.35;3.72;;;;;;;;;;4974824;28;20054;-69
2022/04/03 04:14:27;;;;;;;7.72;3.50;;;;;;;;;;4983439;28;20085;-68
2022/04/03 04:16:53;;;;;;;8.60;3.75;;;;;;;;;;4967597;28;20154;-69
2022/04/03 04:19:19;;;;;;;7.78;4.10;;;;;;;;;;4984835;28;20518;-69
2022/04/03 04:21:45;;;;;;;8.95;4.65;;;;;;;;;;4979488;28;20047;-69
2022/04/03 04:24:12;;;;;;;9.18;3.50;;;;;;;;;;4975786;28;20054;-69
2022/04/03 04:26:38;;;;;;;9.50;4.05;;;;;;;;;;4991176;28;20058;-69
2022/04/03 04:29:04;;;;;;;8.35;4.13;;;;;;;;;;4992998;28;20502;-69
2022/04/03 04:31:30;;;;;;;6.43;3.80;;;;;;;;;;4991317;28;20065;-69
2022/04/03 04:33:56;;;;;;;10.20;4.18;;;;;;;;;;4957840;28;20133;-69
2022/04/03 04:36:22;;;;;;;10.90;4.00;;;;;;;;;;4992210;28;20046;-70
2022/04/03 04:38:48;;;;;;;8.80;3.78;;;;;;;;;;4990834;28;20505;-68
2022/04/03 04:41:14;;;;;;;8.88;3.50;;;;;;;;;;4991289;28;20058;-68
2022/04/03 04:43:40;;;;;;;9.60;3.97;;;;;;;;;;4976376;28;20093;-69
2022/04/03 04:46:06;;;;;;;8.30;3.60;;;;;;;;;;4984923;28;20048;-69
2022/04/03 04:48:34;;;;;;;6.90;3.50;;;;;;;;;;4974627;28;20050;-69
2022/04/03 04:51:01;;;;;;;7.65;3.72;;;;;;;;;;4980493;28;20110;-68
2022/04/03 04:53:27;;;;;;;8.23;3.40;;;;;;;;;;4974691;28;20122;-69
2022/04/03 04:55:53;;;;;;;7.45;3.47;;;;;;;;;;4961560;28;20125;-68
2022/04/03 04:58:19;;;;;;;8.93;3.38;;;;;;;;;;4979757;28;20481;-68
2022/04/03 05:00:45;;;;;;;5.88;2.95;;;;;;;;;;4975498;28;20043;-69
2022/04/03 05:03:12;;;;;;;8.15;3.20;;;;;;;;;;4993030;28;20050;-70
2022/04/03 05:05:38;;;;;;;11.00;3.65;;;;;;;;;;4990422;28;20477;-70
2022/04/03 05:08:04;;;;;;;6.78;3.22;;;;;;;;;;4960778;28;20130;-70
2022/04/03 05:10:31;;;;;;;8.30;3.30;;;;;;;;;;4986679;28;20031;-69
2022/04/03 05:12:58;;;;;;;5.78;3.08;;;;;;;;;;4983083;28;20042;-69
2022/04/03 05:15:24;;;;;;;8.27;3.45;;;;;;;;;;4991790;28;20042;-69
2022/04/03 05:17:50;;;;;;;8.00;3.58;;;;;;;;;;4974484;28;20043;-69
2022/04/03 05:20:17;;;;;;;8.50;3.50;;;;;;;;;;4976808;28;20057;-69
2022/04/03 05:22:43;;;;;;;6.65;3.67;;;;;;;;;;4978444;28;20042;-69
2022/04/03 05:25:11;;;;;;;7.95;3.90;;;;;;;;;;4984321;28;20053;-70
2022/04/03 05:27:37;;;;;;;7.95;3.65;;;;;;;;;;4993037;28;20105;-69
2022/04/03 05:30:03;;;;;;;8.07;3.80;;;;;;;;;;4986309;28;20049;-68
2022/04/03 05:32:31;;;;;;;8.82;4.00;;;;;;;;;;4967647;28;20039;-68
2022/04/03 05:34:58;;;;;;;8.63;3.78;;;;;;;;;;4977638;28;20054;-69
2022/04/03 05:37:24;;;;;;;7.22;3.63;;;;;;;;;;4978138;28;20039;-69
2022/04/03 05:39:51;;;;;;;7.85;3.40;;;;;;;;;;4979972;28;20097;-69
2022/04/03 05:42:18;;;;;;;8.02;3.30;;;;;;;;;;4979987;28;20053;-68
2022/04/03 05:44:44;;;;;;;8.00;3.92;;;;;;;;;;4994111;28;20050;-68
2022/04/03 05:47:10;;;;;;;9.07;3.45;;;;;;;;;;4996377;28;20406;-69
2022/04/03 05:49:37;;;;;;;8.32;3.30;;;;;;;;;;4992892;28;20038;-69
2022/04/03 05:52:03;;;;;;;6.95;3.58;;;;;;;;;;4995170;28;20061;-69
2022/04/03 05:54:29;;;;;;;7.63;3.33;;;;;;;;;;4994192;28;20078;-69
2022/04/03 05:56:55;;;;;;;7.35;3.63;;;;;;;;;;4994787;28;20086;-68
2022/04/03 05:59:21;;;;;;;9.60;3.55;;;;;;;;;;4995452;28;20053;-68
2022/04/03 06:01:48;;;;;;;8.75;3.63;;;;;;;;;;4995167;28;20053;-68
2022/04/03 06:04:14;;;;;;;8.13;3.65;;;;;;;;;;4993440;28;20051;-69
2022/04/03 06:06:40;;;;;;;7.55;4.47;;;;;;;;;;4980599;28;20054;-69
2022/04/03 06:09:06;;;;;;;20.38;13.65;;;;;;;;;;4981758;28;20054;-69
2022/04/03 06:11:32;;;;;;;11.65;6.95;;;;;;;;;;4985540;28;20622;-70
2022/04/03 06:13:58;;;;;;;8.65;4.40;;;;;;;;;;4990978;28;20051;-69
2022/04/03 06:16:25;;;;;;;10.90;5.03;;;;;;;;;;4988280;28;20049;-69
2022/04/03 06:18:53;;;;;;;13.32;6.38;;;;;;;;;;4988254;28;20050;-69
2022/04/03 06:21:19;;;;;;;8.45;4.00;;;;;;;;;;4991252;28;20502;-69
2022/04/03 06:23:45;;;;;;;8.55;4.45;;;;;;;;;;4986679;28;20449;-69
2022/04/03 06:26:11;;;;;;;7.88;4.68;;;;;;;;;;4986490;28;20053;-70
2022/04/03 06:28:37;;;;;;;12.82;4.43;;;;;;;;;;4982404;28;20137;-68
2022/04/03 06:31:04;;;;;;;10.65;4.80;;;;;;;;;;4992322;28;20046;-69
2022/04/03 06:33:30;;;;;;;7.57;3.65;;;;;;;;;;4993565;28;20108;-69
2022/04/03 06:35:56;;;;;;;7.22;3.83;;;;;;;;;;4975525;28;20118;-69
2022/04/03 06:38:22;;;;;;;7.35;3.75;;;;;;;;;;4978344;28;20062;-69
2022/04/03 06:40:53;;;;;;;7.65;3.50;;;;;;;;;;4988939;28;20081;-69
2022/04/03 06:43:20;;;;;;;8.13;3.43;;;;;;;;;;4977941;28;20058;-69
2022/04/03 06:45:47;;;;;;;8.40;3.80;;;;;;;;;;4958095;28;20043;-69
2022/04/03 06:48:13;;;;;;;6.07;2.88;;;;;;;;;;4984819;28;20126;-69
2022/04/03 06:50:39;;;;;;;7.32;3.30;;;;;;;;;;4993479;28;20038;-70
2022/04/03 06:53:05;;;;;;;7.90;2.88;;;;;;;;;;4989393;28;20065;-69
2022/04/03 06:55:31;;;;;;;6.00;3.05;;;;;;;;;;4975666;28;20042;-69
2022/04/03 06:57:57;;;;;;;6.43;3.10;;;;;;;;;;4986439;28;20437;-69
2022/04/03 07:00:23;;;;;;;7.05;2.85;;;;;;;;;;4967671;28;20061;-69
2022/04/03 07:02:49;;;;;;;6.32;3.03;;;;;;;;;;4980785;28;20046;-69
2022/04/03 07:05:15;;;;;;;6.07;2.83;;;;;;;;;;4966615;28;20047;-69
2022/04/03 07:07:41;;;;;;;7.63;2.83;;;;;;;;;;4966402;28;20051;-69
2022/04/03 07:10:08;;;;;;;7.43;2.95;;;;;;;;;;4989184;28;20034;-70
2022/04/03 07:12:34;;;;;;;6.45;3.08;;;;;;;;;;4992686;28;20085;-69
2022/04/03 07:15:00;;;;;;;6.00;2.85;;;;;;;;;;4994951;28;20084;-69
2022/04/03 07:17:26;;;;;;;6.60;2.90;;;;;;;;;;4995421;28;20470;-69
2022/04/03 07:19:52;;;;;;;7.07;3.03;;;;;;;;;;4992810;28;20042;-68
2022/04/03 07:22:18;;;;;;;8.02;3.03;;;;;;;;;;4990727;28;20536;-69
2022/04/03 07:24:45;;;;;;;6.65;3.00;;;;;;;;;;4972129;28;20078;-68
2022/04/03 07:27:11;;;;;;;6.72;2.85;;;;;;;;;;4978498;28;20051;-68
2022/04/03 07:29:36;;;;;;;7.03;2.75;;;;;;;;;;4991168;28;20052;-68
2022/04/03 07:32:03;;;;;;;8.32;3.10;;;;;;;;;;4993696;28;20375;-69
2022/04/03 07:34:29;;;;;;;7.30;2.92;;;;;;;;;;4984266;28;20504;-69
2022/04/03 07:36:56;;;;;;;6.90;2.83;;;;;;;;;;4977821;28;20546;-69
2022/04/03 07:39:22;;;;;;;6.15;2.47;;;;;;;;;;4994452;28;20084;-69
2022/04/03 07:41:48;;;;;;;7.35;2.40;;;;;;;;;;4994207;28;20100;-68
2022/04/03 07:44:15;;;;;;;5.25;2.15;;;;;;;;;;4994249;28;20054;-68
2022/04/03 07:46:41;;;;;;;6.55;2.20;;;;;;;;;;4993917;28;20042;-69
2022/04/03 07:49:07;;;;;;;5.63;2.13;;;;;;;;;;4979120;28;20045;-69
2022/04/03 07:51:34;;;;;;;6.88;2.30;;;;;;;;;;4993892;28;20050;-69
2022/04/03 07:54:00;;;;;;;5.07;1.67;;;;;;;;;;4989116;28;20409;-69
2022/04/03 07:56:26;;;;;;;5.72;1.80;;;;;;;;;;4970007;28;20049;-68
2022/04/03 07:58:52;;;;;;;5.80;1.90;;;;;;;;;;4962956;28;20039;-69
2022/04/03 08:01:18;;;;;;;4.93;1.80;;;;;;;;;;4980223;28;20034;-70
2022/04/03 08:03:44;;;;;;;6.82;1.67;;;;;;;;;;4982655;28;20406;-70
2022/04/03 08:06:10;;;;;;;8.93;1.88;;;;;;;;;;4978434;28;20047;-70
2022/04/03 08:08:36;;;;;;;6.03;1.70;;;;;;;;;;4985625;28;20051;-69
2022/04/03 08:11:02;;;;;;;5.03;1.70;;;;;;;;;;4976696;28;20552;-69
2022/04/03 08:13:28;;;;;;;8.25;1.60;;;;;;;;;;4992293;28;20524;-68
2022/04/03 08:15:54;;;;;;;8.10;1.60;;;;;;;;;;4991286;28;20046;-69
2022/04/03 08:18:22;;;;;;;5.78;1.60;;;;;;;;;;4985670;28;20046;-69
2022/04/03 08:20:48;;;;;;;5.75;1.58;;;;;;;;;;4977315;28;20402;-68
2022/04/03 08:23:14;;;;;;;7.65;1.80;;;;;;;;;;4977216;28;20050;-69
2022/04/03 08:25:40;;;;;;;5.25;1.73;;;;;;;;;;4993270;28;20054;-67
2022/04/03 08:28:09;;;;;;;8.57;2.17;;;;;;;;;;4987416;28;20588;-68
2022/04/03 08:30:37;;;;;;;6.95;1.77;;;;;;;;;;4984011;28;20552;-68
2022/04/03 08:33:08;;;;;;;7.95;1.60;;;;;;;;;;4968592;28;20409;-68
2022/04/03 08:35:40;;;;;;;8.13;1.63;;;;;;;;;;4992428;28;20387;-68
2022/04/03 08:38:06;;;;;;;7.60;2.03;;;;;;;;;;4975047;28;20078;-68
2022/04/03 08:40:33;;;;;;;8.30;2.00;;;;;;;;;;4976168;28;20055;-68
2022/04/03 08:43:00;;;;;;;5.25;1.67;;;;;;;;;;4941063;28;20135;-69
2022/04/03 08:45:26;;;;;;;4.65;1.45;;;;;;;;;;4955233;29;20078;-69
2022/04/03 08:48:02;;;;;;;5.43;1.48;;;;;;;;;;4944796;28;20552;-69
2022/04/03 08:50:34;;;;;;;6.30;1.50;;;;;;;;;;4955811;28;20035;-68
2022/04/03 08:53:02;;;;;;;6.97;1.60;;;;;;;;;;4959414;28;20066;-68
2022/04/03 08:55:29;;;;;;;7.78;1.60;;;;;;;;;;4955458;28;20047;-68
2022/04/03 08:57:55;;;;;;;4.75;1.48;;;;;;;;;;4966574;28;20058;-68
2022/04/03 09:00:21;;;;;;;4.40;1.40;;;;;;;;;;4971726;28;20086;-68
2022/04/03 09:02:47;;;;;;;6.25;1.40;;;;;;;;;;4965248;28;20044;-68
2022/04/03 09:05:14;;;;;;;9.73;1.50;;;;;;;;;;4959006;28;20050;-69
2022/04/03 09:07:40;;;;;;;4.75;1.17;;;;;;;;;;4968536;28;20098;-68
2022/04/03 09:10:10;;;;;;;5.55;1.40;;;;;;;;;;4956277;28;20548;-68
2022/04/03 09:12:46;;;;;;;5.63;1.30;;;;;;;;;;4942126;29;20059;-70
2022/04/03 09:15:14;;;;;;;6.68;1.23;;;;;;;;;;4955182;28;20039;-69
2022/04/03 09:17:49;;;;;;;8.23;1.25;;;;;;;;;;4954719;29;20055;-68
2022/04/03 09:20:23;;;;;;;4.53;1.00;;;;;;;;;;4954774;28;20039;-69
2022/04/03 09:22:53;;;;;;;9.25;1.30;;;;;;;;;;4972493;28;20050;-68
2022/04/03 09:25:29;;;;;;;3.63;0.95;;;;;;;;;;4970409;28;20066;-68
2022/04/03 09:27:56;;;;;;;5.85;1.20;;;;;;;;;;4966439;28;20042;-68
2022/04/03 09:30:24;;;;;;;5.93;1.35;;;;;;;;;;4972049;28;20055;-68
2022/04/03 09:32:51;;;;;;;3.47;1.00;;;;;;;;;;4973766;28;20057;-68
2022/04/03 09:35:19;;;;;;;5.03;1.20;;;;;;;;;;4973856;28;20046;-68
2022/04/03 09:38:04;;;;;;;2.90;0.60;;;;;;;;;;4972360;28;20045;-68
2022/04/03 09:40:31;;;;;;;4.60;0.73;;;;;;;;;;4954656;29;20043;-68
2022/04/03 09:43:13;;;;;;;4.35;0.88;;;;;;;;;;4976616;28;20050;-68
2022/04/03 09:45:49;;;;;;;2.75;0.65;;;;;;;;;;4974329;28;20417;-68
2022/04/03 09:48:23;;;;;;;5.57;0.70;;;;;;;;;;4993224;28;20038;-68
2022/04/03 09:50:59;;;;;;;4.65;0.80;;;;;;;;;;4993166;28;20423;-68
2022/04/03 09:53:25;;;;;;;3.83;0.60;;;;;;;;;;4975879;28;20156;-68
2022/04/03 09:55:51;;;;;;;3.95;1.00;;;;;;;;;;4993056;28;20043;-68
2022/04/03 09:58:17;;;;;;;5.38;0.85;;;;;;;;;;4974205;28;20096;-68
2022/04/03 10:00:44;;;;;;;5.35;0.80;;;;;;;;;;4985841;28;20054;-68
2022/04/03 10:03:11;;;;;;;2.78;0.63;;;;;;;;;;4993097;28;20461;-68
2022/04/03 10:05:37;;;;;;;4.75;0.70;;;;;;;;;;4993070;28;20042;-69
2022/04/03 10:08:04;;;;;;;3.90;0.63;;;;;;;;;;4992931;28;20046;-68
2022/04/03 10:10:34;;;;;;;4.65;0.88;;;;;;;;;;4991041;28;20050;-69
2022/04/03 10:13:00;;;;;;;5.80;0.93;;;;;;;;;;4973969;28;20168;-67
2022/04/03 10:15:27;;;;;;;4.35;0.77;;;;;;;;;;4980111;28;20479;-68
2022/04/03 10:17:53;;;;;;;3.03;0.82;;;;;;;;;;4978326;28;20048;-68
2022/04/03 10:20:19;;;;;;;5.63;0.82;;;;;;;;;;4979124;28;20039;-69
2022/04/03 10:22:48;;;;;;;3.63;0.90;;;;;;;;;;4979048;28;20045;-69
2022/04/03 10:25:18;;;;;;;4.60;0.90;;;;;;;;;;4995731;28;20047;-68
2022/04/03 10:27:45;;;;;;;4.10;1.05;;;;;;;;;;4996116;28;20425;-69
2022/04/03 10:30:11;;;;;;;4.15;0.73;;;;;;;;;;4996673;28;20383;-69
2022/04/03 10:32:40;;;;;;;3.95;0.60;;;;;;;;;;4996432;28;20104;-69
2022/04/03 10:35:10;;;;;;;2.83;0.82;;;;;;;;;;4996285;28;20058;-68
2022/04/03 10:37:37;;;;;;;2.60;0.60;;;;;;;;;;4979004;28;20046;-69
2022/04/03 10:40:16;;;;;;;3.47;1.00;;;;;;;;;;4993763;28;20042;-69
2022/04/03 10:42:59;;;;;;;5.90;1.08;;;;;;;;;;4994021;28;20506;-69
2022/04/03 10:45:27;;;;;;;5.00;1.30;;;;;;;;;;4996162;28;20434;-69
2022/04/03 10:48:13;;;;;;;4.40;0.90;;;;;;;;;;4995966;28;20046;-69
2022/04/03 10:50:57;;;;;;;7.15;2.80;;;;;;;;;;4996001;28;20504;-71
2022/04/03 10:53:25;;;;;;;8.13;1.83;;;;;;;;;;4996030;28;20038;-69
2022/04/03 10:55:57;;;;;;;6.63;2.25;;;;;;;;;;4978602;28;20535;-70
2022/04/03 10:58:23;;;;;;;6.13;1.30;;;;;;;;;;4995742;28;20046;-69
2022/04/03 11:00:51;;;;;;;5.28;1.20;;;;;;;;;;4978413;28;20038;-67
2022/04/03 11:03:17;;;;;;;5.47;1.00;;;;;;;;;;4996084;28;20034;-69
2022/04/03 11:05:46;;;;;;;5.55;1.23;;;;;;;;;;4996065;28;20121;-71
2022/04/03 11:08:11;;;;;;;7.45;1.40;;;;;;;;;;4995650;28;20046;-70
2022/04/03 11:10:48;;;;;;;6.03;2.30;;;;;;;;;;4976623;28;20093;-69
2022/04/03 11:13:15;;;;;;;6.43;2.08;;;;;;;;;;4995835;28;20134;-69
2022/04/03 11:15:51;;;;;;;5.28;0.85;;;;;;;;;;4993394;28;20540;-69
2022/04/03 11:18:37;;;;;;;6.03;1.10;;;;;;;;;;4994326;28;20049;-68
2022/04/03 11:21:18;;;;;;;3.88;1.05;;;;;;;;;;4995542;28;20065;-68
2022/04/03 11:23:45;;;;;;;3.15;0.88;;;;;;;;;;4995362;28;20498;-69
2022/04/03 11:26:12;;;;;;;4.07;0.88;;;;;;;;;;4977493;28;20101;-68
2022/04/03 11:28:38;;;;;;;3.10;0.70;;;;;;;;;;4994119;28;20524;-69
2022/04/03 11:31:05;;;;;;;4.72;1.00;;;;;;;;;;4966648;28;20055;-68
2022/04/03 11:33:32;;;;;;;4.00;0.80;;;;;;;;;;4975552;28;20118;-68
2022/04/03 11:36:02;;;;;;;3.95;1.00;;;;;;;;;;4975779;28;20097;-69
2022/04/03 11:38:33;;;;;;;4.50;0.90;;;;;;;;;;4975799;28;20062;-69
2022/04/03 11:41:01;;;;;;;4.53;1.00;;;;;;;;;;4990740;28;20047;-68
2022/04/03 11:43:27;;;;;;;8.77;1.00;;;;;;;;;;4994940;28;20077;-70
2022/04/03 11:45:55;;;;;;;5.15;0.90;;;;;;;;;;4977014;28;20058;-69
2022/04/03 11:48:22;;;;;;;6.47;1.00;;;;;;;;;;4977580;28;20058;-68
2022/04/03 11:50:52;;;;;;;4.07;1.13;;;;;;;;;;4977354;28;20081;-69
2022/04/03 11:53:18;;;;;;;4.30;1.00;;;;;;;;;;4973263;28;20042;-68
2022/04/03 11:55:45;;;;;;;6.05;1.10;;;;;;;;;;4957949;28;20074;-68
2022/04/03 11:58:11;;;;;;;7.65;1.65;;;;;;;;;;4975274;28;20051;-68
2022/04/03 12:00:44;;;;;;;9.90;2.90;;;;;;;;;;4975178;28;20098;-69
2022/04/03 12:03:10;;;;;;;4.82;1.38;;;;;;;;;;4970304;28;20050;-69
2022/04/03 12:05:36;;;;;;;7.90;2.88;;;;;;;;;;4976785;28;20050;-68
2022/04/03 12:08:03;;;;;;;7.32;1.98;;;;;;;;;;4993828;28;20050;-68
2022/04/03 12:10:32;;;;;;;17.98;7.93;;;;;;;;;;4994713;28;20108;-69
2022/04/03 12:12:59;;;;;;;15.93;7.05;;;;;;;;;;4994590;28;20124;-68
2022/04/03 12:15:27;;;;;;;12.70;4.72;;;;;;;;;;4994310;28;20088;-68
2022/04/03 12:17:56;;;;;;;5.60;1.77;;;;;;;;;;4994485;28;20043;-68
2022/04/03 12:20:22;;;;;;;11.35;1.90;;;;;;;;;;4994435;28;20055;-68
2022/04/03 12:22:52;;;;;;;6.60;1.20;;;;;;;;;;4993652;28;20050;-68
2022/04/03 12:25:19;;;;;;;5.70;1.48;;;;;;;;;;4976788;28;20043;-68
2022/04/03 12:27:45;;;;;;;7.07;1.63;;;;;;;;;;4976931;28;20050;-68
2022/04/03 12:30:12;;;;;;;6.35;1.40;;;;;;;;;;4994374;28;20049;-68
2022/04/03 12:32:40;;;;;;;4.88;1.50;;;;;;;;;;4993453;28;20410;-68
2022/04/03 12:35:09;;;;;;;4.15;1.30;;;;;;;;;;4993726;28;20512;-68
2022/04/03 12:37:40;;;;;;;4.82;1.92;;;;;;;;;;4974592;28;20074;-68
2022/04/03 12:40:08;;;;;;;5.63;1.58;;;;;;;;;;4975459;28;20101;-68
2022/04/03 12:42:38;;;;;;;7.63;1.50;;;;;;;;;;4993335;28;20069;-67
2022/04/03 12:45:16;;;;;;;4.05;1.42;;;;;;;;;;4993941;28;20152;-68
2022/04/03 12:47:44;;;;;;;7.47;1.30;;;;;;;;;;4994060;28;20523;-68
2022/04/03 12:50:12;;;;;;;5.70;1.27;;;;;;;;;;4974696;28;20146;-69
2022/04/03 12:52:39;;;;;;;7.10;1.50;;;;;;;;;;4967074;28;20050;-69
2022/04/03 12:55:06;;;;;;;5.88;1.35;;;;;;;;;;4976227;28;20087;-68
2022/04/03 13:00:18;;;;;;;5.90;1.98;;;;;;;;;;4993920;28;20051;-68
2022/04/03 13:02:45;;;;;;;8.75;2.70;;;;;;;;;;4993629;28;20054;-68
2022/04/03 13:05:14;;;;;;;7.20;2.63;;;;;;;;;;4991156;28;20042;-69
2022/04/03 13:07:41;;;;;;;5.05;2.60;;;;;;;;;;4976507;28;20078;-67
2022/04/03 13:10:13;;;;;;;6.57;1.70;;;;;;;;;;4976381;28;20193;-68
2022/04/03 13:12:39;;;;;;;7.00;1.85;;;;;;;;;;4982343;28;20061;-68
2022/04/03 13:15:05;;;;;;;4.10;1.73;;;;;;;;;;4987912;28;20068;-68
2022/04/03 13:17:31;;;;;;;6.00;1.27;;;;;;;;;;4992269;28;20386;-68
2022/04/03 13:19:57;;;;;;;4.93;1.73;;;;;;;;;;4977179;28;20046;-68
2022/04/03 13:22:23;;;;;;;4.03;1.50;;;;;;;;;;4957778;28;20042;-68
2022/04/03 13:24:49;;;;;;;6.47;1.30;;;;;;;;;;4988456;28;20062;-67
2022/04/03 13:27:16;;;;;;;5.13;1.92;;;;;;;;;;4969395;28;20042;-68
2022/04/03 13:29:42;;;;;;;4.35;1.40;;;;;;;;;;4964780;28;20047;-67
2022/04/03 13:32:08;;;;;;;4.85;1.70;;;;;;;;;;4983789;28;20041;-68
2022/04/03 13:34:34;;;;;;;5.90;1.67;;;;;;;;;;4986632;28;20050;-68
2022/04/03 13:37:00;;;;;;;3.70;1.30;;;;;;;;;;4967192;28;20097;-68
2022/04/03 13:39:27;;;;;;;4.13;0.80;;;;;;;;;;4983204;28;20497;-68
2022/04/03 13:41:55;;;;;;;4.45;0.65;;;;;;;;;;4984279;28;20133;-69
2022/04/03 13:44:21;;;;;;;2.70;0.70;;;;;;;;;;4987433;28;20497;-69
2022/04/03 13:46:48;;;;;;;2.65;0.80;;;;;;;;;;4985166;28;20050;-69
2022/04/03 13:49:14;;;;;;;1.65;0.50;;;;;;;;;;4991201;28;20039;-68
2022/04/03 13:51:41;;;;;;;2.65;0.45;;;;;;;;;;4992088;28;20482;-69
2022/04/03 13:54:07;;;;;;;2.38;0.50;;;;;;;;;;4996761;28;20421;-68
2022/04/03 13:56:34;;;;;;;3.65;0.50;;;;;;;;;;4995928;28;20070;-77
2022/04/03 13:59:03;;;;;;;1.67;0.43;;;;;;;;;;4993699;28;20042;-74
2022/04/03 14:01:30;;;;;;;3.90;0.43;;;;;;;;;;4972999;28;20046;-69
2022/04/03 14:03:56;;;;;;;3.10;0.52;;;;;;;;;;4992227;28;20100;-69
2022/04/03 14:06:22;;;;;;;2.20;0.60;;;;;;;;;;4976875;28;20046;-70
2022/04/03 14:08:51;;;;;;;2.03;0.70;;;;;;;;;;4994608;28;20059;-76
2022/04/03 14:11:19;;;;;;;1.40;0.68;;;;;;;;;;4986984;28;20051;-69
2022/04/03 14:13:46;;;;;;;2.10;0.63;;;;;;;;;;4967282;28;20082;-70
2022/04/03 14:16:12;;;;;;;2.30;0.50;;;;;;;;;;4985010;28;20556;-70
2022/04/03 14:18:38;;;;;;;3.10;0.70;;;;;;;;;;4983382;28;20038;-70
2022/04/03 14:21:06;;;;;;;4.65;0.70;;;;;;;;;;4986516;28;20155;-70
2022/04/03 14:23:32;;;;;;;4.05;0.80;;;;;;;;;;4990509;28;20042;-72
2022/04/03 14:26:00;;;;;;;3.42;0.80;;;;;;;;;;4986103;28;20043;-68
2022/04/03 14:28:26;;;;;;;3.45;0.65;;;;;;;;;;4984995;28;20426;-69
2022/04/03 14:30:52;;;;;;;2.58;0.68;;;;;;;;;;4988562;28;20124;-75
2022/04/03 14:33:18;;;;;;;4.70;0.70;;;;;;;;;;4979882;28;20397;-69
2022/04/03 14:35:44;;;;;;;3.60;0.80;;;;;;;;;;4986907;28;20089;-70
2022/04/03 14:38:10;;;;;;;3.40;0.88;;;;;;;;;;4983738;28;20089;-69
2022/04/03 14:40:36;;;;;;;5.25;0.90;;;;;;;;;;4983551;28;20058;-68
2022/04/03 14:43:02;;;;;;;3.38;0.90;;;;;;;;;;4985143;28;20409;-69
2022/04/03 14:45:28;;;;;;;4.72;0.90;;;;;;;;;;4983751;28;20157;-69